createdAt,value
2018-03-28T00:47:38.272Z,94523.41
2018-03-28T00:50:11.543Z,94516.08
2018-03-28T00:52:45.562Z,94519.94
2018-03-28T00:55:18.832Z,94522.49
2018-03-28T00:57:52.852Z,94514.75
2018-03-28T02:31:30.471Z,94423.77
2018-03-28T02:34:03.720Z,94425.50
2018-03-28T02:36:36.998Z,94420.72
2018-03-28T02:39:10.281Z,94421.22
2018-03-28T02:41:43.530Z,94424.99
2018-03-28T02:44:17.576Z,94415.14
2018-03-28T03:48:28.196Z,94416.53
2018-03-28T03:51:02.225Z,94418.88
2018-03-28T03:53:36.257Z,94424.16
2018-03-28T03:56:09.514Z,94417.56
2018-03-28T03:58:42.783Z,94413.88
2018-03-28T04:30:55.406Z,94425.38
2018-03-28T04:33:28.654Z,94418.98
2018-03-28T04:36:01.924Z,94422.34
2018-03-28T04:38:35.181Z,94426.42
2018-03-28T04:41:08.461Z,94429.30
2018-03-28T04:43:41.711Z,94426.97
2018-03-28T04:46:14.978Z,94438.07
2018-03-28T04:48:48.230Z,94429.53
2018-03-28T04:51:22.270Z,94432.39
2018-03-28T04:53:55.532Z,94438.50
2018-03-28T04:56:28.802Z,94435.19
2018-03-28T04:59:02.052Z,94450.75
2018-03-28T05:01:35.342Z,94440.90
2018-03-28T05:04:08.679Z,94438.66
2018-03-28T05:06:42.656Z,94433.06
2018-03-28T05:09:15.930Z,94435.91
2018-03-28T05:11:49.938Z,94433.66
2018-03-28T05:14:23.983Z,94441.30
2018-03-28T05:16:57.234Z,94445.48
2018-03-28T05:19:31.267Z,94443.45
2018-03-28T05:22:04.534Z,94442.45
2018-03-28T05:24:37.796Z,94443.50
2018-03-28T05:27:11.044Z,94438.42
2018-03-28T05:29:44.321Z,94456.14
2018-03-28T05:32:18.364Z,94434.18
2018-03-28T05:34:51.612Z,94440.94
2018-03-28T05:37:24.883Z,94463.12
2018-03-28T05:39:58.125Z,94450.22
2018-03-28T05:42:32.174Z,94452.00
2018-03-28T05:45:05.420Z,94444.68
2018-03-28T05:47:39.488Z,94454.05
2018-03-28T05:50:12.729Z,94455.48
2018-03-28T05:52:46.776Z,94463.64
2018-03-28T05:55:20.018Z,94450.75
2018-03-28T05:57:53.301Z,94449.74
2018-03-28T06:00:26.545Z,94461.25
2018-03-28T06:02:59.813Z,94461.88
2018-03-28T06:05:33.857Z,94479.22
2018-03-28T06:08:07.099Z,94457.34
2018-03-28T06:10:40.371Z,94461.76
2018-03-28T06:13:13.622Z,94476.87
2018-03-28T06:15:46.894Z,94446.64
2018-03-28T06:18:22.552Z,94459.52
2018-03-28T06:20:56.589Z,94454.95
2018-03-28T06:23:29.850Z,94438.97
2018-03-28T06:26:03.893Z,94440.44
2018-03-28T06:28:37.151Z,94441.56
2018-03-28T07:03:33.100Z,94436.28
2018-03-28T07:06:06.349Z,94433.12
2018-03-28T07:08:39.625Z,94425.29
2018-03-28T07:11:12.898Z,94434.97
2018-03-28T07:13:46.186Z,94426.22
2018-03-28T08:01:50.334Z,94443.08
2018-03-28T08:04:24.382Z,94441.96
2018-03-28T08:06:57.678Z,94437.34
2018-03-28T08:09:30.961Z,94434.59
2018-03-28T08:12:04.220Z,94428.13
2018-03-28T08:14:38.232Z,94439.87
2018-03-28T09:02:44.206Z,94420.69
2018-03-28T09:05:17.456Z,94402.14
2018-03-28T09:07:50.750Z,94406.09
2018-03-28T09:10:23.989Z,94416.78
2018-03-28T09:12:58.023Z,94393.47
2018-03-28T10:01:08.302Z,94373.47
2018-03-28T10:03:47.187Z,94363.27
2018-03-28T10:06:21.202Z,94360.83
2018-03-28T10:08:54.495Z,94365.05
2018-03-28T10:11:27.829Z,94355.44
2018-03-28T10:14:01.104Z,94352.07
2018-03-28T11:02:05.484Z,94355.63
2018-03-28T11:04:38.760Z,94328.30
2018-03-28T11:07:12.017Z,94321.72
2018-03-28T11:09:45.298Z,94317.80
2018-03-28T11:12:18.550Z,94310.16
2018-03-28T11:14:51.838Z,94304.52
2018-03-28T12:02:56.936Z,94271.23
2018-03-28T12:05:30.189Z,94260.05
2018-03-28T12:08:03.482Z,94261.74
2018-03-28T12:10:36.736Z,94263.42
2018-03-28T12:13:10.125Z,94294.61
2018-03-28T13:01:16.251Z,94212.21
2018-03-28T13:03:50.307Z,94224.44
2018-03-28T13:06:23.562Z,94215.92
2018-03-28T13:08:56.875Z,94211.75
2018-03-28T13:11:30.876Z,94199.14
2018-03-28T13:14:04.158Z,94209.34
2018-03-28T14:02:10.691Z,94148.66
2018-03-28T14:04:43.969Z,94138.11
2018-03-28T14:07:17.994Z,94137.82
2018-03-28T14:09:51.280Z,94145.41
2018-03-28T14:12:24.530Z,94119.11
2018-03-28T14:14:57.825Z,94130.11
2018-03-28T14:46:46.563Z,94072.95
2018-03-28T14:49:19.833Z,94064.73
2018-03-28T14:51:53.106Z,94058.06
2018-03-28T14:54:26.376Z,94052.33
2018-03-28T14:56:59.634Z,94050.19
2018-03-28T14:59:32.918Z,94050.70
2018-03-28T15:31:22.455Z,94025.61
2018-03-28T15:33:55.734Z,94020.98
2018-03-28T15:36:29.003Z,94018.89
2018-03-28T15:39:02.277Z,94018.92
2018-03-28T15:44:08.881Z,94019.88
2018-03-28T15:46:42.139Z,94022.47
2018-03-28T15:49:15.423Z,94007.63
2018-03-28T15:51:48.676Z,94010.75
2018-03-28T15:54:21.950Z,94011.84
2018-03-28T15:56:55.210Z,94008.52
2018-03-28T15:59:29.264Z,94016.95
2018-03-28T16:02:02.532Z,94005.04
2018-03-28T16:04:35.792Z,94014.17
2018-03-28T16:07:09.079Z,94014.20
2018-03-28T16:09:42.331Z,93994.19
2018-03-28T16:12:15.624Z,93982.16
2018-03-28T16:14:48.895Z,93996.40
2018-03-28T16:17:22.944Z,93988.47
2018-03-28T16:19:56.201Z,93988.81
2018-03-28T16:22:29.473Z,93989.24
2018-03-28T16:25:02.733Z,93985.48
2018-03-28T16:27:36.019Z,93984.09
2018-03-28T16:30:09.267Z,93981.25
2018-03-28T16:32:43.308Z,93981.08
2018-03-28T16:35:16.564Z,93977.00
2018-03-28T16:37:49.880Z,93974.16
2018-03-28T16:40:23.144Z,93966.01
2018-03-28T16:42:56.409Z,93964.91
2018-03-28T16:45:29.686Z,93964.62
2018-03-28T16:48:02.969Z,93960.34
2018-03-28T16:50:36.250Z,93954.33
2018-03-28T16:53:09.514Z,93953.62
2018-03-28T16:55:42.806Z,93950.36
2018-03-28T16:58:16.060Z,93944.34
2018-03-28T17:00:49.343Z,93937.64
2018-03-28T17:03:22.593Z,93944.10
2018-03-28T17:05:55.902Z,93940.98
2018-03-28T17:08:29.959Z,93945.05
2018-03-28T17:11:03.205Z,93948.74
2018-03-28T17:13:37.269Z,93944.98
2018-03-28T17:16:10.521Z,93936.14
2018-03-28T17:18:44.564Z,93934.92
2018-03-28T17:21:17.825Z,93937.00
2018-03-28T17:23:51.883Z,93938.95
2018-03-28T17:26:25.154Z,93929.56
2018-03-28T17:28:58.417Z,93923.26
2018-03-28T17:31:31.813Z,93932.05
2018-03-28T17:34:05.090Z,93934.92
2018-03-28T17:36:38.350Z,93932.09
2018-03-28T17:39:11.634Z,93931.80
2018-03-28T17:41:44.913Z,93911.66
2018-03-28T17:44:18.159Z,93902.99
2018-03-28T17:46:51.434Z,93915.18
2018-03-28T17:49:24.692Z,93916.63
2018-03-28T17:51:57.972Z,93905.70
2018-03-28T17:54:31.222Z,93903.97
2018-03-28T17:57:04.509Z,93917.66
2018-03-28T17:59:37.752Z,93917.25
2018-03-28T18:02:11.789Z,93914.19
2018-03-28T18:04:45.046Z,93920.02
2018-03-28T18:07:18.338Z,93916.55
2018-03-28T18:09:51.597Z,93915.75
2018-03-28T18:12:24.887Z,93924.23
2018-03-28T18:14:58.138Z,93919.73
2018-03-28T18:17:32.253Z,93917.88
2018-03-28T18:20:05.471Z,93915.34
2018-03-28T18:22:38.753Z,93917.59
2018-03-28T18:25:12.063Z,93910.55
2018-03-28T18:27:45.345Z,93913.09
2018-03-28T18:30:19.370Z,93918.00
2018-03-28T18:32:52.736Z,93904.71
2018-03-28T18:35:26.179Z,93915.75
2018-03-28T18:37:59.457Z,93909.91
2018-03-28T18:40:32.794Z,93911.59
2018-03-28T18:43:06.649Z,93895.11
2018-03-28T18:45:39.936Z,93898.75
2018-03-28T18:48:13.214Z,93898.00
2018-03-28T18:50:47.235Z,93882.45
2018-03-28T18:53:20.509Z,93884.19
2018-03-28T18:55:54.545Z,93888.47
2018-03-28T18:58:28.591Z,93887.25
2018-03-28T19:01:01.851Z,93886.45
2018-03-28T19:03:35.148Z,93890.14
2018-03-28T19:06:08.400Z,93889.85
2018-03-28T19:08:41.681Z,93886.91
2018-03-28T19:11:14.935Z,93883.55
2018-03-28T19:13:49.025Z,93886.81
2018-03-28T19:16:23.784Z,93886.81
2018-03-28T19:18:57.138Z,93882.94
2018-03-28T19:21:33.232Z,93886.11
2018-03-28T19:24:06.514Z,93890.73
2018-03-28T19:26:39.803Z,93878.08
2018-03-28T19:29:13.831Z,93889.23
2018-03-28T19:31:47.229Z,93887.50
2018-03-28T19:34:20.478Z,93884.14
2018-03-28T19:36:53.775Z,93882.70
2018-03-28T19:39:27.025Z,93882.41
2018-03-28T19:42:08.709Z,93890.27
2018-03-28T19:44:41.991Z,93888.13
2018-03-28T19:47:15.274Z,93891.30
2018-03-28T19:49:48.526Z,93878.02
2018-03-28T19:52:21.806Z,93892.63
2018-03-28T19:54:55.090Z,93887.03
2018-03-28T19:57:28.378Z,93875.99
2018-03-28T20:00:01.630Z,93869.58
2018-03-28T20:02:35.675Z,93880.27
2018-03-28T20:05:08.927Z,93877.95
2018-03-28T20:07:49.913Z,93879.89
2018-03-28T20:10:23.934Z,93878.67
2018-03-28T20:12:57.990Z,93881.16
2018-03-28T20:15:31.239Z,93870.23
2018-03-28T20:18:05.287Z,93868.21
2018-03-28T20:20:38.545Z,93862.31
2018-03-28T20:23:11.841Z,93855.50
2018-03-28T20:25:45.877Z,93866.94
2018-03-28T20:28:19.135Z,93860.09
2018-03-28T20:30:53.182Z,93864.47
2018-03-28T20:33:26.454Z,93857.83
2018-03-28T20:36:00.496Z,93868.38
2018-03-28T20:38:33.768Z,93867.11
2018-03-28T20:41:07.787Z,93871.16
2018-03-28T20:43:41.057Z,93863.66
2018-03-28T20:46:15.093Z,93866.41
2018-03-28T20:48:48.389Z,93879.34
2018-03-28T20:51:21.659Z,93865.78
2018-03-28T20:53:55.706Z,93876.39
2018-03-28T20:56:28.988Z,93876.73
2018-03-28T20:59:02.242Z,93883.27
2018-03-28T21:01:35.514Z,93870.38
2018-03-28T21:04:08.766Z,93873.16
2018-03-28T21:06:42.034Z,93871.83
2018-03-28T21:09:16.052Z,93874.48
2018-03-28T21:11:49.345Z,93872.87
2018-03-28T21:14:23.356Z,93876.73
2018-03-28T21:16:57.410Z,93875.64
2018-03-28T21:19:30.662Z,93874.31
2018-03-28T21:22:03.946Z,93886.70
2018-03-28T21:24:37.217Z,93871.48
2018-03-28T21:27:10.473Z,93880.37
2018-03-28T21:29:43.752Z,93885.48
2018-03-28T21:32:16.998Z,93910.84
2018-03-28T21:34:50.289Z,93915.29
2018-03-28T21:37:23.553Z,93907.95
2018-03-28T21:39:56.850Z,93916.55
2018-03-28T21:42:30.112Z,93909.73
2018-03-28T21:45:04.137Z,93921.30
2018-03-28T21:47:37.397Z,93942.83
2018-03-28T21:50:10.669Z,93920.49
2018-03-28T21:52:43.954Z,93917.14
2018-03-28T21:55:17.219Z,93916.56
2018-03-28T21:57:50.489Z,93928.45
2018-03-28T22:00:24.530Z,93932.66
2018-03-28T22:02:57.784Z,93921.34
2018-03-28T22:05:31.072Z,93919.37
2018-03-28T22:08:04.321Z,93913.44
2018-03-28T22:10:37.614Z,93909.50
2018-03-28T22:13:10.897Z,93915.05
2018-03-28T22:15:44.189Z,93911.17
2018-03-28T22:18:17.433Z,93909.95
2018-03-28T22:20:50.706Z,93912.95
2018-03-28T22:23:23.988Z,93905.61
2018-03-28T22:25:57.237Z,93915.83
2018-03-28T22:28:30.514Z,93915.83
2018-03-28T22:31:03.805Z,93915.83
2018-03-28T22:33:37.054Z,93920.30
2018-03-28T22:36:10.358Z,93921.44
2018-03-28T22:38:43.601Z,93922.65
2018-03-28T22:41:16.889Z,93922.53
2018-03-28T22:43:50.134Z,93922.02
2018-03-28T22:46:23.424Z,93918.03
2018-03-28T22:48:56.692Z,93925.08
2018-03-28T22:51:29.955Z,93928.66
2018-03-28T22:54:03.238Z,93937.03
2018-03-28T22:56:36.498Z,93933.56
2018-03-28T22:59:09.781Z,93936.96
2018-03-28T23:01:43.033Z,93948.50
2018-03-28T23:04:16.306Z,93946.86
2018-03-28T23:06:49.563Z,93949.92
2018-03-28T23:09:22.824Z,93953.90
2018-03-28T23:11:56.848Z,93950.66
2018-03-28T23:14:30.127Z,93949.44
